Bandar Lengeh, Iran

1:49 PM IRDT on August 01, 2014 (GMT +0430)
Bandar Lengeh (OIBL) Elev 75 ft | 26.53 °N, 54.82 °E | Change Station

Current weather conditions updated 19 minutes ago

Clear
Clear
102 °F
Feels Like 116 °F
N
9
Wind Variable Wind from ESE

Today is forecast to be Warmer than yesterday.

Today
High -- | Low -- °F
--% Chance of Precip.
Yesterday
High -- | Low -- °F
Precip. -- in
6:15 AM 7:38 PM
Waxing Crescent, 25% visible
Pressure 29.44 in
Visibility 3.7 miles
Clouds Clear
Heat Index 116 °F
Dew Point 75 °F
Humidity 42%
Rainfall 0.00 in
Snow Depth Not available.
UV 11 out of 12
Pollen Not available.
Air Quality Not available.
Flu Activity Not available.
METAR OIBL 010900Z 12008KT 6000 SKC 39/24 Q0997

More Conditions Fewer Conditions

Pressure 29.44 in
Visibility 3.7 miles
Clouds Clear
Heat Index 116 °F
Dew Point 75 °F
Humidity 42%
Rainfall 0.00 in
Snow Depth Not available.
UV 11 out of 12
Pollen Not available.
Air Quality Not available.
Flu Activity Not available.
METAR OIBL 010900Z 12008KT 6000 SKC 39/24 Q0997

More Conditions Fewer Conditions

10-Day Weather Forecast

Almanac

Astronomy

Aug. 01, 2014 Rise Set
Actual Time 6:15 AM IRDT 7:38 PM IRDT
Civil Twilight 5:50 AM IRDT 8:03 PM IRDT
Nautical Twilight 5:20 AM IRDT 8:32 PM IRDT
Astronomical Twilight 4:50 AM IRDT 9:03 PM IRDT
Moon 10:44 AM IRDT 10:44 PM IRDT
Length of Visible Light 14h 12m
Length of Day
13h 22m
Tomorrow will be 1m 8s shorter.
Waxing Crescent, 25% of the Moon is Illuminated
Today
Waxing Crescent
Aug 3
First Quarter
Aug 10
Full
Aug 17
Last Quarter
Aug 25
New

Yesterday's Extremes

Country Highs Country Lows

Community

WunderPhotos

Upload Photos

1,739,529 photos uploaded!

Nearby

Snow Depth

Not available.

Earthquake Activity

City Distance Mag. Time & Date
No recent earthquake activity has been reported nearby.
Minimum magnitude displayed is 2.5.

Coastal Water Temperatures

Place Temperature
No Stations Reporting

Nearby Weather Stations

There are no personal weather stations in this area.